Time;durP1;ratioP1;P1;durP2;ratioP2;P2;SDS_P1;SDS_P2;PMS_P1;PMS_P2;Temp;Humidity;BMP_temperature;BMP_pressure;BME280_temperature;BME280_humidity;BME280_pressure;Samples;Min_cycle;Max_cycle;Signal;HPM_P1;HPM_P2
2023/05/03 00:01:35;;;;;;;0.80;0.80;;;;;;;14.35;47.07;100671.63;5090249;28;20276;-73
2023/05/03 00:04:03;;;;;;;0.70;0.70;;;;;;;14.65;47.26;100691.00;5090022;28;20226;-74
2023/05/03 00:06:30;;;;;;;0.70;0.70;;;;;;;14.58;47.43;100673.56;5091066;28;20675;-74
2023/05/03 00:08:57;;;;;;;0.70;0.70;;;;;;;14.71;47.37;100701.50;5088437;28;20204;-75
2023/05/03 00:11:25;;;;;;;0.60;0.60;;;;;;;14.75;47.30;100693.72;5090794;28;20308;-74
2023/05/03 00:13:52;;;;;;;0.60;0.60;;;;;;;14.66;47.80;100687.53;5090735;28;20209;-74
2023/05/03 00:16:19;;;;;;;2.80;2.60;;;;;;;14.55;47.56;100668.31;5090094;28;20615;-74
2023/05/03 00:18:46;;;;;;;0.70;0.70;;;;;;;14.64;47.94;100684.03;5090790;28;20201;-74
2023/05/03 00:21:12;;;;;;;0.80;0.80;;;;;;;14.50;48.02;100685.66;5090510;28;20198;-74
2023/05/03 00:23:39;;;;;;;0.70;0.70;;;;;;;14.44;48.10;100680.38;5090944;28;20205;-74
2023/05/03 00:26:06;;;;;;;0.60;0.60;;;;;;;14.36;48.63;100662.06;5091005;28;20205;-74
2023/05/03 00:28:34;;;;;;;0.70;0.70;;;;;;;14.62;47.88;100672.72;5090287;28;20206;-74
2023/05/03 00:31:07;;;;;;;0.70;0.70;;;;;;;14.74;47.99;100664.97;5071596;28;20710;-74
2023/05/03 00:33:34;;;;;;;0.70;0.70;;;;;;;14.73;47.30;100669.31;5071515;28;20218;-74
2023/05/03 00:36:07;;;;;;;0.70;0.70;;;;;;;14.80;47.62;100670.25;5090520;28;20190;-74
2023/05/03 00:38:34;;;;;;;0.80;0.80;;;;;;;14.55;48.12;100630.03;5089986;28;20194;-74
2023/05/03 00:41:02;;;;;;;0.65;0.65;;;;;;;14.51;48.07;100624.78;5090122;28;20209;-74
2023/05/03 00:43:28;;;;;;;0.60;0.60;;;;;;;14.62;48.04;100670.13;5090073;28;20309;-74
2023/05/03 00:45:56;;;;;;;0.70;0.70;;;;;;;14.63;48.29;100669.22;5054528;28;20233;-74
2023/05/03 00:48:23;;;;;;;0.80;0.80;;;;;;;14.43;48.45;100652.53;5090375;28;20198;-74
2023/05/03 00:50:52;;;;;;;0.80;0.80;;;;;;;14.45;49.17;100658.66;5090777;28;20657;-74
2023/05/03 00:53:19;;;;;;;1.85;1.70;;;;;;;14.42;49.23;100677.75;5090469;28;20259;-74
2023/05/03 00:55:46;;;;;;;0.70;0.70;;;;;;;14.52;49.07;100663.91;5079764;28;20257;-73
2023/05/03 00:58:13;;;;;;;0.75;0.75;;;;;;;14.42;49.44;100661.22;5075240;28;20205;-74
2023/05/03 01:00:39;;;;;;;0.70;0.70;;;;;;;14.45;49.41;100661.28;5090493;28;20202;-75
2023/05/03 01:03:08;;;;;;;0.70;0.70;;;;;;;14.44;49.56;100660.41;5090815;28;20194;-74
2023/05/03 01:05:44;;;;;;;0.80;0.80;;;;;;;14.45;49.51;100640.41;5089007;28;20641;-74
2023/05/03 01:08:15;;;;;;;0.70;0.70;;;;;;;14.63;49.41;100657.06;5073162;28;20194;-74
2023/05/03 01:10:48;;;;;;;0.70;0.70;;;;;;;14.50;49.37;100651.72;5090168;28;20202;-74
2023/05/03 01:13:22;;;;;;;0.70;0.70;;;;;;;14.56;49.58;100654.38;5064930;28;20230;-74
2023/05/03 01:15:56;;;;;;;0.70;0.70;;;;;;;14.48;49.94;100656.06;5079785;28;20334;-74
2023/05/03 01:18:30;;;;;;;0.73;0.73;;;;;;;14.52;49.81;100647.41;5090057;28;20193;-75
2023/05/03 01:21:00;;;;;;;0.70;0.70;;;;;;;14.59;49.96;100655.28;5090617;28;20205;-75
2023/05/03 01:23:36;;;;;;;0.70;0.70;;;;;;;14.65;49.57;100659.69;5093575;28;20657;-74
2023/05/03 01:26:19;;;;;;;0.60;0.60;;;;;;;14.62;49.92;100664.88;5094301;28;20653;-74
2023/05/03 01:28:46;;;;;;;0.70;0.70;;;;;;;14.50;50.15;100656.94;5093764;28;20194;-75
2023/05/03 01:31:19;;;;;;;0.80;0.80;;;;;;;14.68;50.17;100651.88;5094033;28;20275;-75
2023/05/03 01:33:53;;;;;;;0.70;0.70;;;;;;;14.62;50.21;100655.31;5093846;28;20198;-74
2023/05/03 01:36:27;;;;;;;0.70;0.70;;;;;;;14.67;50.33;100655.34;5093507;28;20275;-74
2023/05/03 01:38:54;;;;;;;0.65;0.65;;;;;;;14.55;50.56;100657.88;5093795;28;20201;-75
2023/05/03 01:41:24;;;;;;;0.70;0.70;;;;;;;14.51;50.83;100653.50;5093595;28;20201;-74
2023/05/03 01:43:53;;;;;;;0.70;0.70;;;;;;;14.45;50.80;100645.63;5092812;28;20680;-74
2023/05/03 01:46:20;;;;;;;0.75;0.75;;;;;;;14.38;51.17;100642.94;5093563;28;20340;-75
2023/05/03 01:48:47;;;;;;;0.70;0.70;;;;;;;14.56;51.05;100659.59;5093838;28;20236;-74
2023/05/03 01:51:14;;;;;;;0.70;0.70;;;;;;;14.50;51.10;100654.34;5094034;28;20225;-75
2023/05/03 01:53:41;;;;;;;0.70;0.70;;;;;;;14.54;51.33;100653.50;5093161;28;20206;-75
2023/05/03 01:56:08;;;;;;;0.70;0.70;;;;;;;14.59;51.55;100650.06;5093397;28;20230;-75
2023/05/03 01:58:36;;;;;;;0.70;0.70;;;;;;;14.55;51.71;100640.47;5093272;28;20206;-75
2023/05/03 02:01:04;;;;;;;0.80;0.80;;;;;;;14.58;52.00;100647.47;5092891;28;20205;-75
2023/05/03 02:03:31;;;;;;;0.70;0.70;;;;;;;14.36;51.96;100636.84;5093297;28;20628;-75
2023/05/03 02:05:58;;;;;;;0.60;0.60;;;;;;;14.39;52.69;100642.09;5093036;28;20221;-75
2023/05/03 02:08:25;;;;;;;0.77;0.77;;;;;;;14.31;52.17;100638.50;5092502;28;20201;-75
2023/05/03 02:10:52;;;;;;;0.60;0.60;;;;;;;14.29;52.80;100639.34;5092662;28;20197;-75
2023/05/03 02:13:18;;;;;;;0.65;0.65;;;;;;;14.25;52.65;100632.34;5091568;28;20202;-75
2023/05/03 02:15:46;;;;;;;0.70;0.70;;;;;;;14.36;55.46;100631.63;5086288;28;20206;-74
2023/05/03 02:18:15;;;;;;;0.70;0.70;;;;;;;14.30;55.80;100634.13;5092412;28;20217;-75
2023/05/03 02:20:45;;;;;;;0.70;0.70;;;;;;;14.44;56.05;100633.44;5073660;28;20201;-74
2023/05/03 02:23:12;;;;;;;0.70;0.70;;;;;;;14.24;57.40;100631.47;5092865;28;20577;-75
2023/05/03 02:25:39;;;;;;;0.80;0.80;;;;;;;13.62;59.58;100546.59;5093267;28;20226;-75
2023/05/03 02:28:06;;;;;;;0.70;0.70;;;;;;;13.80;63.13;100588.47;5092636;28;20266;-74
2023/05/03 02:30:33;;;;;;;0.70;0.70;;;;;;;14.03;64.44;100631.28;5091711;28;20679;-74
2023/05/03 02:33:01;;;;;;;0.70;0.70;;;;;;;13.99;66.56;100634.72;5092172;28;20670;-75
2023/05/03 02:35:28;;;;;;;0.77;0.77;;;;;;;13.85;67.60;100641.50;5091974;28;20685;-74
2023/05/03 02:37:55;;;;;;;0.73;0.73;;;;;;;13.67;68.22;100617.84;5091886;28;20308;-74
2023/05/03 02:40:22;;;;;;;0.90;0.90;;;;;;;13.85;68.69;100651.94;5091976;28;20190;-75
2023/05/03 02:42:49;;;;;;;0.80;0.80;;;;;;;13.75;71.75;100647.50;5073368;28;20202;-74
2023/05/03 02:45:16;;;;;;;0.85;0.85;;;;;;;13.79;75.24;100650.16;5092453;28;20233;-75
2023/05/03 02:47:43;;;;;;;0.70;0.70;;;;;;;13.77;76.58;100648.38;5092421;28;20233;-74
2023/05/03 02:50:11;;;;;;;0.70;0.70;;;;;;;13.75;77.82;100655.31;5092559;28;20213;-75
2023/05/03 02:52:38;;;;;;;0.90;0.90;;;;;;;13.57;78.49;100655.09;5092153;28;20201;-75
2023/05/03 02:55:05;;;;;;;0.70;0.70;;;;;;;13.43;79.90;100635.81;5092514;28;20209;-74
2023/05/03 02:57:32;;;;;;;0.70;0.70;;;;;;;13.49;80.02;100657.59;5092569;28;20202;-75
2023/05/03 02:59:59;;;;;;;0.70;0.70;;;;;;;13.40;78.68;100662.72;5091492;28;20202;-75
2023/05/03 03:02:26;;;;;;;0.70;0.70;;;;;;;13.40;78.23;100660.97;5091220;28;20202;-75
2023/05/03 03:04:52;;;;;;;0.80;0.80;;;;;;;13.34;78.30;100658.28;5091576;28;20221;-74
2023/05/03 03:07:20;;;;;;;0.70;0.70;;;;;;;13.40;80.15;100668.78;5075229;28;20202;-75
2023/05/03 03:09:47;;;;;;;0.70;0.70;;;;;;;12.84;80.77;100591.63;5091966;28;20217;-75
2023/05/03 03:12:14;;;;;;;0.70;0.70;;;;;;;12.97;82.56;100653.41;5090869;28;20696;-75
2023/05/03 03:14:41;;;;;;;0.77;0.77;;;;;;;13.08;82.98;100664.84;5091550;28;20198;-74
2023/05/03 03:17:08;;;;;;;0.70;0.70;;;;;;;13.06;84.18;100658.72;5091405;28;20236;-74
2023/05/03 03:19:35;;;;;;;0.70;0.70;;;;;;;13.08;84.56;100661.38;5091870;28;20198;-75
2023/05/03 03:22:02;;;;;;;0.80;0.80;;;;;;;12.89;85.45;100655.91;5091839;28;20206;-74
2023/05/03 03:24:30;;;;;;;0.90;0.90;;;;;;;12.72;87.34;100644.38;5091700;28;20202;-74
2023/05/03 03:26:57;;;;;;;0.80;0.80;;;;;;;12.74;87.86;100652.16;5084700;28;20304;-74
2023/05/03 03:29:25;;;;;;;0.80;0.80;;;;;;;12.85;87.37;100661.03;5090944;28;20201;-74
2023/05/03 03:31:51;;;;;;;0.70;0.70;;;;;;;12.85;85.64;100640.19;5090921;28;20190;-74
2023/05/03 03:34:18;;;;;;;0.80;0.80;;;;;;;12.97;84.52;100656.00;5089594;28;20236;-74
2023/05/03 03:36:45;;;;;;;0.80;0.80;;;;;;;13.02;84.17;100659.53;5088986;28;20219;-74
2023/05/03 03:39:12;;;;;;;0.70;0.70;;;;;;;12.96;84.10;100656.84;5091055;28;20194;-75
2023/05/03 03:41:40;;;;;;;0.80;0.80;;;;;;;13.07;83.56;100662.22;5090988;28;20247;-75
2023/05/03 03:44:07;;;;;;;1.48;1.15;;;;;;;13.03;83.16;100650.88;5075222;28;20596;-74
2023/05/03 03:46:34;;;;;;;0.70;0.70;;;;;;;12.89;84.49;100655.91;5091376;28;20246;-74
2023/05/03 03:49:01;;;;;;;0.80;0.80;;;;;;;12.90;84.17;100665.47;5091660;28;20198;-74
2023/05/03 03:51:27;;;;;;;1.00;1.00;;;;;;;12.76;85.54;100647.88;5091430;28;20202;-74
2023/05/03 03:53:54;;;;;;;0.80;0.80;;;;;;;12.82;86.45;100660.97;5090630;28;20198;-75
2023/05/03 03:56:22;;;;;;;0.70;0.70;;;;;;;12.54;87.92;100644.06;5090863;28;20202;-66
2023/05/03 03:58:50;;;;;;;0.80;0.80;;;;;;;12.74;86.64;100649.56;5091134;28;20201;-71
2023/05/03 04:01:17;;;;;;;0.60;0.60;;;;;;;12.80;86.61;100658.38;5090870;28;20197;-72
2023/05/03 04:03:46;;;;;;;0.80;0.80;;;;;;;12.80;86.87;100652.28;5054198;28;20207;-72
2023/05/03 04:06:13;;;;;;;3.70;3.20;;;;;;;12.77;86.84;100665.25;5080695;28;20257;-72
2023/05/03 04:08:39;;;;;;;0.73;0.73;;;;;;;12.67;87.26;100656.41;5087919;28;20206;-65
2023/05/03 04:11:11;;;;;;;0.80;0.80;;;;;;;12.68;85.77;100613.06;5065045;28;20591;-65
2023/05/03 04:13:38;;;;;;;0.70;0.70;;;;;;;12.81;86.32;100654.91;5086479;28;20305;-65
2023/05/03 04:16:07;;;;;;;0.80;0.80;;;;;;;13.29;85.25;100679.91;5090662;28;20218;-65
2023/05/03 04:18:33;;;;;;;0.75;0.75;;;;;;;13.01;85.89;100662.13;5090308;28;20190;-65
2023/05/03 04:21:00;;;;;;;0.70;0.70;;;;;;;13.13;88.74;100681.44;5071481;28;20213;-66
2023/05/03 04:23:27;;;;;;;0.70;0.70;;;;;;;13.02;91.39;100682.97;5090226;28;20296;-66
2023/05/03 04:25:55;;;;;;;0.70;0.70;;;;;;;12.99;94.23;100690.72;5090387;28;20226;-73
2023/05/03 04:28:23;;;;;;;0.80;0.80;;;;;;;13.32;93.84;100695.59;5090065;28;20205;-68
2023/05/03 04:30:50;;;;;;;0.70;0.70;;;;;;;13.22;92.47;100693.72;5086993;28;20194;-73
2023/05/03 04:33:18;;;;;;;0.70;0.70;;;;;;;13.26;93.50;100683.38;5089943;28;20798;-73
2023/05/03 04:35:48;;;;;;;0.90;0.90;;;;;;;13.17;94.47;100693.63;5087646;28;20221;-72
2023/05/03 04:38:15;;;;;;;0.70;0.70;;;;;;;13.39;92.87;100702.63;5084579;28;20626;-65
2023/05/03 04:40:42;;;;;;;0.70;0.70;;;;;;;13.20;94.41;100693.69;5063066;28;20615;-64
2023/05/03 04:43:09;;;;;;;0.65;0.65;;;;;;;13.63;92.91;100702.06;5088261;28;20599;-72
2023/05/03 04:45:35;;;;;;;0.90;0.90;;;;;;;13.47;93.64;100674.97;5080362;28;20241;-72
2023/05/03 04:48:04;;;;;;;0.75;0.75;;;;;;;13.57;94.91;100699.38;5065101;28;20263;-73
2023/05/03 04:50:32;;;;;;;0.80;0.80;;;;;;;13.72;94.75;100690.03;5085588;28;20209;-73
2023/05/03 04:52:59;;;;;;;0.77;0.77;;;;;;;13.77;94.63;100690.06;5075747;28;20195;-71
2023/05/03 04:55:26;;;;;;;0.90;0.90;;;;;;;14.02;93.07;100701.69;5088933;28;20646;-71
2023/05/03 04:57:52;;;;;;;0.80;0.80;;;;;;;14.08;91.83;100689.56;5093895;28;20209;-72
2023/05/03 05:00:20;;;;;;;0.70;0.70;;;;;;;14.24;92.64;100701.03;5094508;28;20221;-72
2023/05/03 05:02:46;;;;;;;0.60;0.60;;;;;;;14.20;90.53;100700.13;5093034;28;20313;-72
2023/05/03 05:05:13;;;;;;;0.60;0.60;;;;;;;14.27;90.00;100686.28;5093346;28;20206;-72
2023/05/03 05:07:41;;;;;;;0.68;0.68;;;;;;;14.72;89.75;100711.06;5091694;28;20202;-71
2023/05/03 05:10:09;;;;;;;0.70;0.70;;;;;;;14.98;87.41;100706.94;5074156;28;20211;-73
2023/05/03 05:12:36;;;;;;;0.77;0.77;;;;;;;15.16;85.10;100720.09;5088035;28;20212;-73
2023/05/03 05:15:04;;;;;;;0.65;0.65;;;;;;;14.74;89.05;100720.66;5057399;28;20244;-75
2023/05/03 05:17:30;;;;;;;0.70;0.70;;;;;;;14.69;90.77;100719.78;5090436;28;20309;-69
2023/05/03 05:19:57;;;;;;;0.70;0.70;;;;;;;14.49;91.07;100694.34;5079829;28;20613;-74
2023/05/03 05:22:24;;;;;;;0.70;0.70;;;;;;;14.50;90.90;100651.72;5093144;28;20580;-74
2023/05/03 05:24:53;;;;;;;0.70;0.70;;;;;;;15.01;89.63;100717.41;5092505;28;20960;-72
2023/05/03 05:27:19;;;;;;;0.80;0.80;;;;;;;14.92;90.37;100709.50;5092525;28;20225;-74
2023/05/03 05:29:46;;;;;;;0.70;0.70;;;;;;;15.12;88.33;100720.97;5056311;28;20213;-74
2023/05/03 05:32:13;;;;;;;0.70;0.70;;;;;;;15.18;89.03;100726.22;5071190;28;20205;-75
2023/05/03 05:34:41;;;;;;;0.80;0.80;;;;;;;15.24;89.56;100736.72;5091245;28;20225;-68
2023/05/03 05:37:07;;;;;;;0.90;0.90;;;;;;;15.24;89.64;100741.94;5093411;28;20189;-68
2023/05/03 05:39:34;;;;;;;0.70;0.70;;;;;;;15.38;88.27;100729.81;5092866;28;20578;-68
2023/05/03 05:42:03;;;;;;;0.80;0.80;;;;;;;15.80;86.46;100725.72;5084484;28;20661;-68
2023/05/03 05:44:30;;;;;;;0.80;0.80;;;;;;;16.19;82.37;100746.78;5058972;28;20603;-69
2023/05/03 05:46:57;;;;;;;0.70;0.70;;;;;;;15.91;84.28;100755.38;5088054;28;20238;-69
2023/05/03 05:49:24;;;;;;;0.70;0.70;;;;;;;15.60;85.16;100750.88;5088364;28;20198;-69
2023/05/03 05:51:50;;;;;;;0.90;0.90;;;;;;;15.67;84.63;100753.53;5087504;28;20202;-69
2023/05/03 05:54:17;;;;;;;0.60;0.60;;;;;;;15.57;84.78;100745.66;5092579;28;20210;-69
2023/05/03 05:56:44;;;;;;;0.80;0.80;;;;;;;15.74;83.31;100738.75;5092378;28;20197;-69
2023/05/03 05:59:12;;;;;;;0.68;0.68;;;;;;;15.07;86.45;100725.28;5092232;28;20277;-69
2023/05/03 06:01:43;;;;;;;0.70;0.70;;;;;;;15.34;86.17;100737.63;5092645;28;20202;-69
2023/05/03 06:04:10;;;;;;;0.70;0.70;;;;;;;15.70;84.43;100745.72;5053833;28;20203;-69
2023/05/03 06:06:36;;;;;;;0.80;0.80;;;;;;;15.79;83.97;100737.94;5077378;28;20248;-69
2023/05/03 06:09:03;;;;;;;0.70;0.70;;;;;;;16.09;82.98;100742.38;5091956;28;20206;-68
2023/05/03 06:11:30;;;;;;;0.60;0.60;;;;;;;16.01;83.39;100743.25;5064817;28;20210;-69
2023/05/03 06:13:57;;;;;;;0.70;0.70;;;;;;;16.60;81.16;100735.53;5092454;28;20198;-69
2023/05/03 06:16:25;;;;;;;0.70;0.70;;;;;;;16.84;77.83;100743.41;5070976;28;20684;-70
2023/05/03 06:18:52;;;;;;;0.70;0.70;;;;;;;17.00;77.89;100753.03;5077997;28;20237;-69
2023/05/03 06:21:19;;;;;;;1.25;1.15;;;;;;;16.93;77.56;100746.03;5072302;28;20669;-69
2023/05/03 06:23:46;;;;;;;0.70;0.70;;;;;;;16.97;74.68;100745.19;5092218;28;20672;-69
2023/05/03 06:26:13;;;;;;;0.60;0.60;;;;;;;16.88;77.17;100755.63;5087190;28;20222;-69
2023/05/03 06:28:39;;;;;;;0.60;0.60;;;;;;;17.20;76.17;100753.88;5089633;28;20231;-69
2023/05/03 06:31:06;;;;;;;0.70;0.70;;;;;;;16.35;79.48;100729.38;5072732;28;20294;-70
2023/05/03 06:33:34;;;;;;;0.80;0.80;;;;;;;16.56;83.21;100742.53;5081774;28;20202;-75
2023/05/03 06:36:01;;;;;;;0.70;0.70;;;;;;;16.68;81.95;100741.66;5091904;28;20233;-73
2023/05/03 06:38:28;;;;;;;0.70;0.70;;;;;;;16.74;81.41;100744.28;5089953;28;20198;-72
2023/05/03 06:40:55;;;;;;;0.70;0.70;;;;;;;16.65;81.25;100739.06;5092346;28;20217;-72
2023/05/03 06:43:22;;;;;;;0.68;0.68;;;;;;;16.40;80.83;100670.06;5076958;28;20281;-72
2023/05/03 06:45:51;;;;;;;0.70;0.70;;;;;;;17.14;79.70;100735.53;5059981;28;20237;-72
2023/05/03 06:48:18;;;;;;;0.60;0.60;;;;;;;17.01;79.90;100760.03;5078832;28;20561;-70
2023/05/03 06:50:46;;;;;;;0.80;0.80;;;;;;;17.18;78.76;100768.75;5085965;28;20206;-73
2023/05/03 06:53:13;;;;;;;0.70;0.70;;;;;;;17.10;79.48;100765.25;5083852;28;20206;-73
2023/05/03 06:55:39;;;;;;;0.70;0.70;;;;;;;17.18;78.10;100763.50;5087907;28;20199;-73
2023/05/03 06:58:08;;;;;;;0.80;0.80;;;;;;;16.88;79.08;100753.03;5071898;28;20211;-73
2023/05/03 07:00:37;;;;;;;0.70;0.70;;;;;;;17.11;82.80;100777.47;5088475;28;20203;-73
2023/05/03 07:03:05;;;;;;;0.60;0.60;;;;;;;17.49;77.82;100768.69;5092090;28;20259;-73
2023/05/03 07:05:31;;;;;;;0.70;0.70;;;;;;;17.62;77.86;100767.84;5041176;28;20215;-73
2023/05/03 07:07:59;;;;;;;0.80;0.80;;;;;;;17.84;77.42;100756.38;5083151;28;20611;-73
2023/05/03 07:10:28;;;;;;;0.95;0.95;;;;;;;17.59;74.91;100767.81;5085594;28;20606;-73
2023/05/03 07:12:55;;;;;;;0.70;0.70;;;;;;;17.54;75.18;100770.44;5085773;28;20198;-73
2023/05/03 07:15:22;;;;;;;0.70;0.70;;;;;;;17.42;77.72;100780.06;5090236;28;20202;-73
2023/05/03 07:17:48;;;;;;;0.68;0.68;;;;;;;17.10;80.57;100785.34;5088753;28;20198;-73
2023/05/03 07:20:15;;;;;;;0.70;0.70;;;;;;;17.60;78.40;100782.69;5054423;28;20198;-71
2023/05/03 07:22:42;;;;;;;0.75;0.75;;;;;;;18.28;73.33;100782.44;5087252;28;20255;-71
2023/05/03 07:25:12;;;;;;;0.70;0.70;;;;;;;18.20;100.00;100656.44;5081283;28;20202;-66
2023/05/03 07:27:39;;;;;;;0.60;0.60;;;;;;;19.44;84.94;100769.34;5081657;28;20233;-66
2023/05/03 07:30:07;;;;;;;0.60;0.60;;;;;;;19.10;73.25;100780.13;5077442;28;20195;-67
2023/05/03 07:32:34;;;;;;;0.80;0.80;;;;;;;18.96;79.95;100778.50;5078211;28;20686;-66
2023/05/03 07:35:02;;;;;;;0.70;0.70;;;;;;;19.47;69.92;100785.09;5084255;28;20203;-67
2023/05/03 07:37:29;;;;;;;0.60;0.60;;;;;;;19.27;69.84;100780.84;5082858;28;20687;-67
2023/05/03 07:39:55;;;;;;;0.70;0.70;;;;;;;19.03;68.15;100783.72;5090439;28;20659;-68
2023/05/03 07:42:23;;;;;;;0.68;0.68;;;;;;;18.90;67.23;100789.94;5084422;28;20564;-69
2023/05/03 07:44:52;;;;;;;0.70;0.70;;;;;;;19.38;66.91;100793.91;5083686;28;20210;-68
2023/05/03 07:47:19;;;;;;;0.90;0.90;;;;;;;19.00;67.84;100796.88;5085678;28;20602;-68
2023/05/03 07:49:46;;;;;;;0.75;0.75;;;;;;;19.16;68.05;100794.97;5090467;28;20226;-68
2023/05/03 07:52:13;;;;;;;0.60;0.60;;;;;;;19.05;69.47;100800.31;5089818;28;20267;-68
2023/05/03 07:54:41;;;;;;;0.70;0.70;;;;;;;19.35;68.12;100790.44;5090030;28;20210;-66
2023/05/03 07:57:08;;;;;;;0.60;0.60;;;;;;;19.54;65.20;100797.31;5086644;28;20207;-68
2023/05/03 07:59:37;;;;;;;0.70;0.70;;;;;;;18.89;68.42;100789.94;5065751;28;20290;-67
2023/05/03 08:02:04;;;;;;;0.60;0.60;;;;;;;19.48;65.04;100798.22;5082245;28;20638;-67
2023/05/03 08:04:31;;;;;;;0.70;0.70;;;;;;;20.01;63.29;100792.34;5083122;28;20312;-67
2023/05/03 08:07:00;;;;;;;0.70;0.70;;;;;;;19.72;62.62;100776.94;5090079;28;20214;-67
2023/05/03 08:09:28;;;;;;;0.70;0.70;;;;;;;19.56;64.53;100796.38;5090185;28;20302;-67
2023/05/03 08:11:55;;;;;;;0.70;0.70;;;;;;;19.14;67.02;100781.88;5090020;28;20664;-68
2023/05/03 08:14:21;;;;;;;0.80;0.80;;;;;;;19.26;66.73;100776.47;5082379;28;20198;-68
2023/05/03 08:16:50;;;;;;;0.60;0.60;;;;;;;19.60;64.57;100798.09;5089889;28;20293;-68
2023/05/03 08:19:17;;;;;;;0.60;0.60;;;;;;;19.64;64.52;100775.25;5089719;28;20198;-68
2023/05/03 08:21:45;;;;;;;0.70;0.70;;;;;;;20.35;62.20;100789.34;5087532;28;20198;-68
2023/05/03 08:24:12;;;;;;;0.70;0.70;;;;;;;20.69;59.56;100791.47;5090049;28;20193;-68
2023/05/03 08:26:40;;;;;;;0.70;0.70;;;;;;;20.54;59.66;100764.50;5089853;28;20230;-74
2023/05/03 08:29:07;;;;;;;0.80;0.80;;;;;;;20.76;58.42;100760.63;5089805;28;20292;-75
2023/05/03 08:31:34;;;;;;;2.30;1.25;;;;;;;20.24;59.08;100758.72;5089171;28;20278;-73
2023/05/03 08:34:02;;;;;;;0.70;0.70;;;;;;;19.88;59.89;100756.56;5076688;28;20202;-74
2023/05/03 08:36:30;;;;;;;0.60;0.60;;;;;;;19.96;60.28;100752.06;5070216;28;20198;-74
2023/05/03 08:38:57;;;;;;;0.60;0.60;;;;;;;20.31;58.89;100729.69;4986508;28;20252;-74
2023/05/03 08:41:29;;;;;;;0.70;0.70;;;;;;;20.48;59.75;100739.09;5070472;28;20198;-74
2023/05/03 08:43:57;;;;;;;0.60;0.60;;;;;;;20.24;60.30;100757.84;5070305;28;20195;-74
2023/05/03 08:46:25;;;;;;;1.02;1.02;;;;;;;20.47;58.29;100715.41;5067819;28;20239;-74
2023/05/03 08:48:53;;;;;;;0.68;0.68;;;;;;;20.51;57.50;100717.13;5070245;28;20218;-75
2023/05/03 08:51:23;;;;;;;2.38;1.95;;;;;;;20.62;57.48;100746.78;5070276;28;20252;-75
2023/05/03 08:53:50;;;;;;;0.70;0.70;;;;;;;20.33;58.81;100741.09;5070346;28;20232;-75
2023/05/03 08:56:28;;;;;;;0.65;0.65;;;;;;;20.55;58.33;100740.72;5070355;28;20293;-75
2023/05/03 08:58:56;;;;;;;0.70;0.70;;;;;;;20.91;57.67;100748.94;5070075;28;20642;-75
2023/05/03 09:01:23;;;;;;;0.63;0.63;;;;;;;21.17;56.60;100747.66;5070178;28;20209;-75
2023/05/03 09:03:51;;;;;;;0.60;0.60;;;;;;;21.16;57.10;100740.63;5070201;28;20199;-75
2023/05/03 09:06:25;;;;;;;0.70;0.70;;;;;;;21.24;56.37;100743.13;5070076;28;20199;-75
2023/05/03 09:08:52;;;;;;;0.70;0.70;;;;;;;20.36;55.44;100741.91;5070145;28;20593;-75
2023/05/03 09:11:22;;;;;;;0.70;0.70;;;;;;;20.20;56.41;100740.34;5073100;28;20202;-75
2023/05/03 09:13:50;;;;;;;0.70;0.70;;;;;;;20.02;56.43;100728.28;5054885;28;20729;-75
2023/05/03 09:16:26;;;;;;;0.55;0.55;;;;;;;20.03;57.17;100727.41;5078881;28;20242;-74
2023/05/03 09:18:59;;;;;;;2.45;2.35;;;;;;;19.59;55.35;100734.97;5088021;28;20202;-74
2023/05/03 09:21:28;;;;;;;0.70;0.70;;;;;;;19.39;56.56;100713.25;5089919;28;20205;-74
2023/05/03 09:23:55;;;;;;;1.08;1.08;;;;;;;19.56;55.65;100732.38;5090114;28;20201;-74
2023/05/03 09:26:29;;;;;;;0.70;0.70;;;;;;;19.70;54.84;100730.44;5090344;28;20661;-74
2023/05/03 09:28:57;;;;;;;0.70;0.70;;;;;;;19.92;55.19;100737.22;5089957;28;20241;-74
2023/05/03 09:31:24;;;;;;;0.70;0.70;;;;;;;20.11;54.19;100738.72;5090138;28;20198;-74
2023/05/03 09:33:52;;;;;;;0.80;0.80;;;;;;;19.96;52.80;100725.75;5090173;28;20214;-68
2023/05/03 09:36:19;;;;;;;0.70;0.70;;;;;;;19.95;51.09;100739.78;5090150;28;20286;-71
2023/05/03 09:38:47;;;;;;;0.70;0.70;;;;;;;20.29;48.57;100748.16;5089956;28;20290;-75
2023/05/03 09:41:15;;;;;;;0.73;0.73;;;;;;;20.13;48.53;100731.66;5090198;28;20198;-75
2023/05/03 09:43:54;;;;;;;0.60;0.60;;;;;;;20.16;46.80;100700.00;5092943;28;20236;-76
2023/05/03 09:46:22;;;;;;;0.85;0.85;;;;;;;20.19;46.43;100749.16;5093676;28;20226;-75
2023/05/03 09:48:49;;;;;;;0.63;0.63;;;;;;;20.37;46.50;100750.69;5093624;28;20217;-74
2023/05/03 09:51:16;;;;;;;0.70;0.70;;;;;;;20.36;45.63;100719.97;5093644;28;20677;-75
2023/05/03 09:53:43;;;;;;;0.60;0.60;;;;;;;20.21;47.70;100732.44;5093496;28;20652;-74
2023/05/03 09:56:12;;;;;;;0.88;0.88;;;;;;;20.67;49.19;100729.13;5093685;28;20202;-75
2023/05/03 09:58:39;;;;;;;0.70;0.70;;;;;;;20.83;48.69;100724.50;5093381;28;20194;-75
2023/05/03 10:01:06;;;;;;;0.70;0.70;;;;;;;20.47;48.54;100726.81;5093580;28;20206;-76
2023/05/03 10:03:41;;;;;;;0.70;0.70;;;;;;;20.80;47.73;100716.66;5093329;28;20198;-76
2023/05/03 10:06:22;;;;;;;0.70;0.70;;;;;;;21.36;47.93;100727.09;5093518;28;20284;-77
2023/05/03 10:08:53;;;;;;;0.70;0.70;;;;;;;21.45;46.16;100704.94;5093342;28;20222;-76
2023/05/03 10:11:24;;;;;;;1.40;1.40;;;;;;;21.21;46.88;100722.97;5093303;28;20213;-77
2023/05/03 10:13:50;;;;;;;0.70;0.70;;;;;;;21.29;46.41;100720.19;5093128;28;20220;-74
2023/05/03 10:16:24;;;;;;;0.70;0.70;;;;;;;21.15;44.77;100717.78;5058185;28;20198;-71
2023/05/03 10:18:56;;;;;;;0.70;0.70;;;;;;;20.98;46.24;100718.94;5093044;28;20205;-75
2023/05/03 10:21:34;;;;;;;0.70;0.70;;;;;;;20.82;46.74;100710.44;5093058;28;20255;-75
2023/05/03 10:24:11;;;;;;;0.80;0.80;;;;;;;20.73;46.46;100714.09;5092992;28;20255;-75
2023/05/03 10:26:42;;;;;;;0.60;0.60;;;;;;;20.23;48.53;100719.22;5093033;28;20248;-76
2023/05/03 10:29:47;;;;;;;0.75;0.75;;;;;;;20.85;48.64;100707.75;5093067;28;20315;-75
2023/05/03 10:32:31;;;;;;;0.75;0.75;;;;;;;21.47;47.72;100708.41;5092864;28;20197;-75
2023/05/03 10:35:01;;;;;;;0.70;0.70;;;;;;;21.48;47.59;100705.75;5092762;28;20259;-76
2023/05/03 10:37:28;;;;;;;0.70;0.70;;;;;;;22.07;46.36;100707.19;5092833;28;20200;-76
2023/05/03 10:39:55;;;;;;;0.80;0.80;;;;;;;22.63;46.62;100689.13;5092850;28;20642;-76
2023/05/03 10:42:25;;;;;;;1.00;0.93;;;;;;;23.06;43.28;100692.47;5092705;28;20275;-76
2023/05/03 10:44:54;;;;;;;0.60;0.60;;;;;;;23.04;42.93;100682.84;5092791;28;20209;-75
2023/05/03 10:47:22;;;;;;;0.60;0.60;;;;;;;22.67;41.25;100682.91;5092517;28;20701;-75
2023/05/03 10:50:27;;;;;;;1.23;1.17;;;;;;;22.42;41.30;100687.00;5092849;28;20289;-74
2023/05/03 10:52:53;;;;;;;0.80;0.80;;;;;;;22.26;41.93;100683.00;5092312;28;20558;-75
2023/05/03 10:55:23;;;;;;;0.63;0.63;;;;;;;22.61;40.76;100683.03;5092655;28;20578;-75
2023/05/03 10:57:55;;;;;;;0.70;0.70;;;;;;;22.66;40.39;100678.47;5092383;28;20233;-75
2023/05/03 11:00:31;;;;;;;0.70;0.70;;;;;;;22.42;40.72;100644.72;5092549;28;20194;-76
2023/05/03 11:03:27;;;;;;;0.70;0.70;;;;;;;22.49;41.53;100675.38;5092263;28;20194;-76
2023/05/03 11:05:54;;;;;;;0.75;0.75;;;;;;;22.24;41.71;100664.53;5073856;28;20201;-74
2023/05/03 11:08:22;;;;;;;0.70;0.70;;;;;;;22.06;40.92;100668.47;5092985;28;20284;-74
2023/05/03 11:10:50;;;;;;;0.70;0.70;;;;;;;22.27;42.21;100656.53;5093283;28;20213;-76
2023/05/03 11:13:18;;;;;;;0.70;0.70;;;;;;;22.45;41.33;100639.34;5056616;28;20289;-74
2023/05/03 11:15:45;;;;;;;0.60;0.60;;;;;;;21.92;41.72;100653.81;5092505;28;20289;-75
2023/05/03 11:18:12;;;;;;;0.70;0.70;;;;;;;22.27;42.01;100655.66;5092170;28;20655;-75
2023/05/03 11:20:39;;;;;;;0.70;0.70;;;;;;;22.60;41.31;100655.72;5092312;28;20235;-74
2023/05/03 11:23:06;;;;;;;0.70;0.70;;;;;;;22.41;41.86;100653.53;5092039;28;20201;-74
2023/05/03 11:25:34;;;;;;;0.70;0.70;;;;;;;22.50;42.21;100653.34;5092168;28;20293;-75
2023/05/03 11:28:01;;;;;;;0.70;0.70;;;;;;;22.21;43.20;100659.31;5073064;28;20218;-76
2023/05/03 11:30:30;;;;;;;0.60;0.60;;;;;;;22.35;42.82;100644.00;5092056;28;20284;-74